MPDA/DAV METAR and TAF weather

Enter ICAO airport designator
Station Type Date Time Source
MPDA METAR 2019/08/26 00:00 UTC NOAA

MPDA 260000Z 32005KT 9000 -RA SCT016 BKN120 25/23 Q1009 RWY DAMP


Station Type Date Time Source
MPDA Decoded METAR 2019/08/26 00:00 UTC NOAA

Station name not available
Aug 25, 2019 - 08:00 PM EDT / 2019.08.26 0000 UTC
Wind: from the NW (320 degrees) at 6 MPH (5 KT):0
Visibility: 5 mile(s):0
Sky conditions: mostly cloudy
Weather: light rain
Temperature: 77 F (25 C)
Dew Point: 73 F (23 C)
Relative Humidity: 88%
Pressure (altimeter): 29.80 in. Hg (1009 hPa)
ob: MPDA 260000Z 32005KT 9000 -RA SCT016 BKN120 25/23 Q1009 RWY DAMP
cycle: 0

Station Type Date Time Source
MPDA TAF 2019/08/26 00:00 UTC NOAA

TAF
AMD MPDA 260300Z 2600/2612 CNL

Example: see airport list